createdAt,value
2022-08-12T00:01:26.935Z,101698.00
2022-08-12T00:04:52.071Z,101700.03
2022-08-12T00:07:59.430Z,101690.72
2022-08-12T00:11:09.792Z,101706.09
2022-08-12T00:14:18.304Z,101705.31
2022-08-12T00:17:24.597Z,101705.25
2022-08-12T00:20:30.215Z,101705.66
2022-08-12T00:23:39.419Z,101702.84
2022-08-12T00:26:45.781Z,101692.34
2022-08-12T00:29:52.791Z,101696.00
2022-08-12T00:32:59.305Z,101700.41
2022-08-12T00:36:32.118Z,101698.81
2022-08-12T00:39:37.521Z,101693.56
2022-08-12T00:42:25.761Z,101691.13
2022-08-12T00:45:12.799Z,101685.84
2022-08-12T00:47:59.863Z,101679.78
2022-08-12T00:50:49.985Z,101682.63
2022-08-12T00:53:38.046Z,101677.78
2022-08-12T00:56:27.878Z,101677.78
2022-08-12T00:59:16.034Z,101679.78
2022-08-12T01:02:12.287Z,101684.25
2022-08-12T01:05:39.681Z,101687.47
2022-08-12T01:08:49.628Z,101682.56
2022-08-12T01:11:37.002Z,101693.88
2022-08-12T01:14:25.203Z,101701.13
2022-08-12T01:17:13.002Z,101701.13
2022-08-12T01:20:07.081Z,101705.09
2022-08-12T01:23:27.398Z,101714.78
2022-08-12T01:26:21.255Z,101710.75
2022-08-12T01:29:13.063Z,101705.91
2022-08-12T01:32:08.975Z,101692.97
2022-08-12T01:35:14.645Z,101677.25
2022-08-12T01:38:05.923Z,101688.16
2022-08-12T01:40:58.028Z,101678.44
2022-08-12T01:43:46.161Z,101687.34
2022-08-12T01:46:52.413Z,101680.06
2022-08-12T01:49:39.746Z,101684.13
2022-08-12T01:52:39.015Z,101678.53
2022-08-12T01:55:33.548Z,101691.44
2022-08-12T01:58:57.265Z,101706.75
2022-08-12T02:01:47.830Z,101709.88
2022-08-12T02:05:10.309Z,101707.38
2022-08-12T02:08:37.747Z,101704.13
2022-08-12T02:11:31.839Z,101696.00
2022-08-12T02:14:40.580Z,101687.06
2022-08-12T02:18:00.194Z,101669.69
2022-08-12T02:21:00.550Z,101680.63
2022-08-12T02:23:49.287Z,101677.34
2022-08-12T02:26:40.195Z,101675.22
2022-08-12T02:29:27.494Z,101681.25
2022-08-12T02:32:15.347Z,101688.47
2022-08-12T02:35:02.950Z,101679.13
2022-08-12T02:37:55.858Z,101674.28
2022-08-12T02:40:44.809Z,101670.66
2022-08-12T02:43:55.802Z,101671.44
2022-08-12T02:46:49.154Z,101667.28
2022-08-12T02:49:44.874Z,101678.53
2022-08-12T02:52:34.540Z,101677.78
2022-08-12T02:55:28.263Z,101672.88
2022-08-12T02:58:21.387Z,101660.34
2022-08-12T03:01:25.096Z,101664.78
2022-08-12T03:04:30.399Z,101666.66
2022-08-12T03:07:32.680Z,101666.28
2022-08-12T03:10:41.532Z,101658.22
2022-08-12T03:13:39.067Z,101665.41
2022-08-12T03:16:30.211Z,101673.06
2022-08-12T03:19:21.127Z,101664.94
2022-08-12T03:22:14.615Z,101666.88
2022-08-12T03:25:05.560Z,101676.53
2022-08-12T03:27:58.301Z,101674.50
2022-08-12T03:30:49.971Z,101672.47
2022-08-12T03:33:48.194Z,101669.59
2022-08-12T03:36:48.798Z,101672.38
2022-08-12T03:39:38.887Z,101664.72
2022-08-12T03:42:40.925Z,101660.66
2022-08-12T03:45:51.950Z,101652.09
2022-08-12T03:49:01.492Z,101650.16
2022-08-12T03:52:07.072Z,101640.44
2022-08-12T03:55:13.034Z,101646.41
2022-08-12T03:58:21.023Z,101643.19
2022-08-12T04:01:08.519Z,101651.22
2022-08-12T04:03:55.805Z,101651.59
2022-08-12T04:06:47.577Z,101646.75
2022-08-12T04:09:36.296Z,101653.56
2022-08-12T04:12:45.706Z,101658.38
2022-08-12T04:15:33.553Z,101652.78
2022-08-12T04:18:21.350Z,101664.06
2022-08-12T04:21:11.181Z,101663.25
2022-08-12T04:23:58.730Z,101660.84
2022-08-12T04:26:45.915Z,101655.69
2022-08-12T04:30:32.063Z,101662.47
2022-08-12T04:32:44.396Z,101662.47
2022-08-12T04:35:31.729Z,101657.69
2022-08-12T04:38:20.049Z,101663.34
2022-08-12T04:41:07.522Z,101662.56
2022-08-12T04:44:02.272Z,101661.84
2022-08-12T04:46:49.498Z,101661.91
2022-08-12T04:49:36.990Z,101660.75
2022-08-12T04:52:24.603Z,101657.88
2022-08-12T04:55:12.844Z,101665.13
2022-08-12T04:58:00.313Z,101657.09
2022-08-12T05:00:47.559Z,101664.78
2022-08-12T05:03:46.655Z,101664.00
2022-08-12T05:06:34.598Z,101665.19
2022-08-12T05:09:21.966Z,101670.00
2022-08-12T05:12:09.221Z,101668.47
2022-08-12T05:14:56.214Z,101677.31
2022-08-12T05:17:43.720Z,101669.78
2022-08-12T05:20:30.916Z,101682.31
2022-08-12T05:23:20.078Z,101676.75
2022-08-12T05:26:07.498Z,101673.16
2022-08-12T05:28:54.553Z,101673.97
2022-08-12T05:31:48.434Z,101682.53
2022-08-12T05:34:35.662Z,101670.50
2022-08-12T05:37:23.710Z,101681.00
2022-08-12T05:40:11.797Z,101680.34
2022-08-12T05:42:58.937Z,101674.72
2022-08-12T05:45:47.467Z,101684.44
2022-08-12T05:48:34.786Z,101686.16
2022-08-12T05:51:39.931Z,101691.09
2022-08-12T05:54:47.662Z,101686.34
2022-08-12T05:57:35.209Z,101682.84
2022-08-12T06:00:25.841Z,101691.38
2022-08-12T06:03:14.195Z,101684.19
2022-08-12T06:06:01.285Z,101696.75
2022-08-12T06:08:53.681Z,101695.53
2022-08-12T06:11:54.026Z,101695.56
2022-08-12T06:14:55.863Z,101704.50
2022-08-12T06:17:43.771Z,101698.81
2022-08-12T06:20:34.296Z,101705.28
2022-08-12T06:23:21.472Z,101710.06
2022-08-12T06:26:11.665Z,101718.09
2022-08-12T06:29:00.859Z,101723.75
2022-08-12T06:31:50.742Z,101718.31
2022-08-12T06:35:26.065Z,101734.44
2022-08-12T06:37:51.501Z,101738.75
2022-08-12T06:41:05.411Z,101737.91
2022-08-12T06:44:06.016Z,101736.97
2022-08-12T06:46:55.092Z,101742.47
2022-08-12T06:49:45.313Z,101745.50
2022-08-12T06:52:32.446Z,101755.00
2022-08-12T06:55:20.907Z,101748.50
2022-08-12T06:58:10.445Z,101768.63
2022-08-12T07:00:59.505Z,101790.03
2022-08-12T07:03:47.230Z,101788.94
2022-08-12T07:06:34.560Z,101799.72
2022-08-12T07:10:06.907Z,101799.00
2022-08-12T07:12:30.385Z,101774.59
2022-08-12T07:15:20.410Z,101758.63
2022-08-12T07:18:13.337Z,101803.19
2022-08-12T07:21:04.154Z,101787.66
2022-08-12T07:23:51.154Z,101801.78
2022-08-12T07:26:44.310Z,101805.47
2022-08-12T07:29:57.897Z,101809.28
2022-08-12T07:32:38.724Z,101786.97
2022-08-12T07:35:25.764Z,101778.84
2022-08-12T07:38:42.368Z,101789.00
2022-08-12T07:41:31.911Z,101768.19
2022-08-12T07:44:19.022Z,101795.41
2022-08-12T07:47:08.107Z,101823.78
2022-08-12T07:50:05.745Z,101822.75
2022-08-12T07:52:53.376Z,101816.69
2022-08-12T07:55:40.433Z,101767.78
2022-08-12T07:58:27.422Z,101778.75
2022-08-12T08:01:17.613Z,101830.13
2022-08-12T08:04:24.030Z,101788.38
2022-08-12T08:07:11.542Z,101761.50
2022-08-12T08:10:00.925Z,101811.66
2022-08-12T08:12:53.848Z,101794.84
2022-08-12T08:16:02.508Z,101777.94
2022-08-12T08:18:49.655Z,101811.06
2022-08-12T08:21:36.866Z,101753.00
2022-08-12T08:24:27.006Z,101748.09
2022-08-12T08:27:14.013Z,101747.88
2022-08-12T08:30:02.501Z,101759.06
2022-08-12T08:32:49.930Z,101768.97
2022-08-12T08:35:46.254Z,101752.09
2022-08-12T08:38:35.465Z,101761.38
2022-08-12T08:42:16.578Z,101748.78
2022-08-12T08:44:53.964Z,101731.31
2022-08-12T08:47:46.394Z,101744.06
2022-08-12T08:50:33.599Z,101720.63
2022-08-12T08:53:20.691Z,101704.53
2022-08-12T08:56:11.083Z,101703.78
2022-08-12T08:59:00.238Z,101746.34
2022-08-12T09:01:47.994Z,101689.28
2022-08-12T09:05:12.171Z,101699.38
2022-08-12T09:14:11.530Z,101683.16
2022-08-12T09:16:59.754Z,101656.16
2022-08-12T09:19:46.966Z,101666.22
2022-08-12T09:22:35.131Z,101683.44
2022-08-12T09:25:26.389Z,101696.25
2022-08-12T09:28:30.883Z,101663.47
2022-08-12T09:32:08.006Z,101652.03
2022-08-12T09:34:33.617Z,101659.09
2022-08-12T09:37:28.387Z,101657.84
2022-08-12T09:40:57.533Z,101635.66
2022-08-12T09:44:05.435Z,101645.94
2022-08-12T09:46:52.714Z,101647.00
2022-08-12T09:49:42.521Z,101604.56
2022-08-12T09:52:32.160Z,101639.34
2022-08-12T09:56:05.799Z,101613.97
2022-08-12T09:58:57.354Z,101604.41
2022-08-12T10:02:42.704Z,101611.78
2022-08-12T10:04:51.562Z,101581.88
2022-08-12T10:07:40.685Z,101594.88
2022-08-12T10:10:30.159Z,101601.53
2022-08-12T10:13:41.816Z,101584.13
2022-08-12T10:16:36.811Z,101592.28
2022-08-12T10:19:36.773Z,101567.00
2022-08-12T10:22:39.215Z,101551.88
2022-08-12T10:26:18.346Z,101563.50
2022-08-12T10:29:15.760Z,101565.09
2022-08-12T10:32:44.654Z,101581.31
2022-08-12T10:35:38.268Z,101550.66
2022-08-12T10:38:34.992Z,101550.97
2022-08-12T10:41:57.893Z,101568.59
2022-08-12T10:44:46.918Z,101553.13
2022-08-12T10:48:19.898Z,101569.19
2022-08-12T10:51:01.998Z,101555.63
2022-08-12T10:53:52.737Z,101540.59
2022-08-12T10:56:40.630Z,101538.75
2022-08-12T11:00:35.980Z,101532.03
2022-08-12T11:04:27.480Z,101522.09
2022-08-12T11:07:06.727Z,101502.59
2022-08-12T11:09:07.229Z,101506.69
2022-08-12T11:12:34.838Z,101537.19
2022-08-12T11:15:19.219Z,101509.72
2022-08-12T11:18:18.538Z,101511.03
2022-08-12T11:21:06.318Z,101504.78
2022-08-12T11:23:53.531Z,101502.06
2022-08-12T11:26:41.013Z,101505.69
2022-08-12T11:30:02.581Z,101535.84
2022-08-12T11:32:39.024Z,101492.72
2022-08-12T11:35:29.528Z,101510.91
2022-08-12T11:38:20.289Z,101515.59
2022-08-12T11:41:07.557Z,101513.66
2022-08-12T11:43:58.312Z,101483.72
2022-08-12T11:46:45.876Z,101510.25
2022-08-12T11:49:38.560Z,101504.50
2022-08-12T11:52:54.953Z,101509.22
2022-08-12T11:55:33.157Z,101500.72
2022-08-12T11:59:27.529Z,101463.63
2022-08-12T12:02:02.556Z,101464.59
2022-08-12T12:04:35.041Z,101454.03
2022-08-12T12:07:33.711Z,101457.41
2022-08-12T12:10:29.866Z,101478.91
2022-08-12T12:14:05.362Z,101480.03
2022-08-12T12:16:24.781Z,101473.59
2022-08-12T12:19:11.825Z,101455.44
2022-08-12T12:21:58.805Z,101437.88
2022-08-12T12:24:50.886Z,101475.63
2022-08-12T12:28:05.375Z,101460.84
2022-08-12T12:30:54.492Z,101460.28
2022-08-12T12:33:56.854Z,101449.97
2022-08-12T12:36:48.978Z,101459.09
2022-08-12T12:39:54.678Z,101464.47
2022-08-12T12:42:55.832Z,101434.72
2022-08-12T12:45:47.432Z,101411.19
2022-08-12T12:48:34.376Z,101427.88
2022-08-12T12:51:22.226Z,101423.34
2022-08-12T12:54:29.149Z,101427.09
2022-08-12T12:57:16.820Z,101422.25
2022-08-12T13:00:15.434Z,101425.09
2022-08-12T13:03:02.498Z,101459.78
2022-08-12T13:05:53.731Z,101419.53
2022-08-12T13:08:41.009Z,101430.88
2022-08-12T13:11:42.261Z,101423.41
2022-08-12T13:14:35.182Z,101405.69
2022-08-12T13:17:26.596Z,101413.00
2022-08-12T13:20:37.872Z,101425.25
2022-08-12T13:23:35.897Z,101447.25
2022-08-12T13:26:23.572Z,101406.91
2022-08-12T13:29:13.022Z,101427.53
2022-08-12T13:32:18.675Z,101429.56
2022-08-12T13:35:19.999Z,101411.59
2022-08-12T13:38:26.869Z,101418.56
2022-08-12T13:41:34.346Z,101410.53
2022-08-12T13:44:22.821Z,101418.81
2022-08-12T13:47:12.383Z,101416.09
2022-08-12T13:50:09.467Z,101411.03
2022-08-12T13:52:57.178Z,101416.41
2022-08-12T13:55:46.203Z,101400.63
2022-08-12T13:58:37.437Z,101389.94
2022-08-12T14:01:24.402Z,101407.22
2022-08-12T14:04:12.392Z,101394.41
2022-08-12T14:07:02.913Z,101399.53
2022-08-12T14:10:09.246Z,101382.13
2022-08-12T14:12:57.819Z,101374.19
2022-08-12T14:15:53.052Z,101379.09
2022-08-12T14:18:42.211Z,101375.84
2022-08-12T14:21:30.106Z,101387.94
2022-08-12T14:24:40.464Z,101383.88
2022-08-12T14:28:02.622Z,101384.09
2022-08-12T14:30:36.445Z,101351.41
2022-08-12T14:33:25.213Z,101376.88
2022-08-12T14:36:12.834Z,101383.19
2022-08-12T14:39:00.171Z,101357.78
2022-08-12T14:41:57.150Z,101388.16
2022-08-12T14:44:57.505Z,101355.22
2022-08-12T14:47:53.719Z,101377.84
2022-08-12T14:51:03.139Z,101375.09
2022-08-12T14:55:50.775Z,101372.19
2022-08-12T14:57:20.691Z,101375.94
2022-08-12T15:00:30.224Z,101385.34
2022-08-12T15:03:17.358Z,101370.28
2022-08-12T15:06:44.490Z,101346.50
2022-08-12T15:09:16.392Z,101366.16
2022-08-12T15:12:04.434Z,101370.81
2022-08-12T15:14:53.847Z,101361.44
2022-08-12T15:17:40.935Z,101341.38
2022-08-12T15:20:32.978Z,101360.69
2022-08-12T15:23:29.304Z,101358.63
2022-08-12T15:26:21.252Z,101356.22
2022-08-12T15:29:16.951Z,101323.88
2022-08-12T15:32:10.651Z,101325.91
2022-08-12T15:34:58.467Z,101360.19
2022-08-12T15:38:10.519Z,101324.81
2022-08-12T15:40:53.377Z,101327.84
2022-08-12T15:44:16.925Z,101353.03
2022-08-12T15:46:48.070Z,101327.03
2022-08-12T15:49:43.050Z,101375.19
2022-08-12T15:52:42.257Z,101333.56
2022-08-12T15:55:33.809Z,101325.34
2022-08-12T15:58:21.893Z,101339.06
2022-08-12T16:01:15.065Z,101333.84
2022-08-12T16:04:02.171Z,101332.81
2022-08-12T16:07:05.802Z,101343.84
2022-08-12T16:10:06.647Z,101314.59
2022-08-12T16:12:57.838Z,101324.38
2022-08-12T16:15:51.126Z,101350.19
2022-08-12T16:18:49.978Z,101330.38
2022-08-12T16:21:52.095Z,101313.81
2022-08-12T16:24:48.001Z,101330.19
2022-08-12T16:27:41.887Z,101345.13
2022-08-12T16:30:34.241Z,101323.41
2022-08-12T16:33:58.840Z,101348.56
2022-08-12T16:36:46.002Z,101325.47
2022-08-12T16:39:57.339Z,101350.03
2022-08-12T16:42:53.940Z,101316.69
2022-08-12T16:46:23.445Z,101316.69
2022-08-12T16:48:56.365Z,101299.34
2022-08-12T16:51:45.987Z,101292.25
2022-08-12T16:54:36.331Z,101298.97
2022-08-12T16:57:35.129Z,101286.97
2022-08-12T17:00:24.150Z,101282.75
2022-08-12T17:03:12.779Z,101299.47
2022-08-12T17:06:19.728Z,101279.59
2022-08-12T17:09:17.294Z,101287.34
2022-08-12T17:12:05.587Z,101282.97
2022-08-12T17:14:53.028Z,101306.63
2022-08-12T17:17:42.144Z,101299.75
2022-08-12T17:20:37.441Z,101298.28
2022-08-12T17:23:28.594Z,101279.47
2022-08-12T17:26:37.234Z,101285.56
2022-08-12T17:30:00.348Z,101277.13
2022-08-12T17:32:35.919Z,101265.56
2022-08-12T17:35:37.543Z,101302.25
2022-08-12T17:38:30.591Z,101281.03
2022-08-12T17:41:22.431Z,101288.97
2022-08-12T17:44:10.450Z,101309.09
2022-08-12T17:47:01.233Z,101301.22
2022-08-12T17:50:02.375Z,101302.53
2022-08-12T17:52:51.937Z,101288.78
2022-08-12T17:55:48.194Z,101307.97
2022-08-12T17:58:38.143Z,101330.13
2022-08-12T18:01:25.602Z,101295.38
2022-08-12T18:04:22.194Z,101344.66
2022-08-12T18:07:23.713Z,101319.41
2022-08-12T18:10:35.914Z,101336.25
2022-08-12T18:13:40.307Z,101323.66
2022-08-12T18:16:29.570Z,101320.09
2022-08-12T18:19:17.622Z,101332.97
2022-08-12T18:22:05.412Z,101361.97
2022-08-12T18:25:02.401Z,101352.78
2022-08-12T18:28:16.205Z,101373.69
2022-08-12T18:31:03.388Z,101369.78
2022-08-12T18:33:52.452Z,101364.84
2022-08-12T18:36:40.841Z,101372.13
2022-08-12T18:39:57.758Z,101369.75
2022-08-12T18:42:54.408Z,101375.28
2022-08-12T18:45:47.163Z,101367.97
2022-08-12T18:48:44.350Z,101377.84
2022-08-12T18:51:34.155Z,101369.25
2022-08-12T18:54:36.245Z,101374.72
2022-08-12T18:58:06.118Z,101378.81
2022-08-12T19:00:34.252Z,101404.25
2022-08-12T19:03:39.143Z,101386.06
2022-08-12T19:06:35.683Z,101404.47
2022-08-12T19:09:57.465Z,101391.31
2022-08-12T19:13:03.268Z,101385.66
2022-08-12T19:15:57.402Z,101384.78
2022-08-12T19:18:46.415Z,101384.63
2022-08-12T19:21:39.405Z,101385.44
2022-08-12T19:24:46.581Z,101382.13
2022-08-12T19:27:34.602Z,101383.38
2022-08-12T19:30:55.543Z,101382.91
2022-08-12T19:33:52.103Z,101383.69
2022-08-12T19:36:50.426Z,101369.34
2022-08-12T19:40:08.669Z,101373.56
2022-08-12T19:42:53.489Z,101377.34
2022-08-12T19:45:48.888Z,101373.44
2022-08-12T19:48:37.434Z,101383.47
2022-08-12T19:51:35.874Z,101393.38
2022-08-12T19:54:23.115Z,101396.88
2022-08-12T19:57:18.858Z,101384.84
2022-08-12T20:00:07.901Z,101388.25
2022-08-12T20:03:00.432Z,101386.72
2022-08-12T20:06:06.898Z,101397.00
2022-08-12T20:08:57.294Z,101394.66
2022-08-12T20:12:12.526Z,101401.34
2022-08-12T20:14:53.418Z,101402.69
2022-08-12T20:17:50.492Z,101411.88
2022-08-12T20:20:39.042Z,101409.16
2022-08-12T20:23:50.770Z,101409.75
2022-08-12T20:26:41.827Z,101412.34
2022-08-12T20:29:35.582Z,101404.31
2022-08-12T20:32:29.418Z,101418.19
2022-08-12T20:35:18.275Z,101417.59
2022-08-12T20:38:26.612Z,101416.47
2022-08-12T20:41:16.183Z,101418.63
2022-08-12T20:44:03.633Z,101423.56
2022-08-12T20:46:50.667Z,101437.06
2022-08-12T20:49:42.081Z,101431.44
2022-08-12T20:52:34.142Z,101429.47
2022-08-12T20:55:22.218Z,101433.59
2022-08-12T20:58:30.373Z,101430.97
2022-08-12T21:01:23.835Z,101437.06
2022-08-12T21:04:56.467Z,101432.69
2022-08-12T21:07:51.643Z,101431.59
2022-08-12T21:10:38.930Z,101431.25
2022-08-12T21:13:29.596Z,101428.47
2022-08-12T21:16:35.503Z,101425.28
2022-08-12T21:19:52.091Z,101433.47
2022-08-12T21:22:35.020Z,101425.06
2022-08-12T21:25:25.582Z,101417.81
2022-08-12T21:28:30.886Z,101419.84
2022-08-12T21:32:36.761Z,101429.63
2022-08-12T21:34:29.286Z,101437.41
2022-08-12T21:37:27.311Z,101433.03
2022-08-12T21:40:15.139Z,101432.25
2022-08-12T21:43:04.354Z,101434.78
2022-08-12T21:46:00.141Z,101436.47
2022-08-12T21:48:49.259Z,101451.88
2022-08-12T21:51:50.252Z,101468.06
2022-08-12T21:54:42.664Z,101474.16
2022-08-12T21:57:36.364Z,101478.28
2022-08-12T22:00:40.174Z,101483.59
2022-08-12T22:04:02.937Z,101488.06
2022-08-12T22:06:55.786Z,101474.75
2022-08-12T22:09:46.327Z,101471.53
2022-08-12T22:12:34.782Z,101475.63
2022-08-12T22:15:24.857Z,101457.06
2022-08-12T22:18:13.030Z,101470.81
2022-08-12T22:21:03.114Z,101467.59
2022-08-12T22:24:04.067Z,101462.31
2022-08-12T22:26:52.433Z,101473.28
2022-08-12T22:29:57.710Z,101476.94
2022-08-12T22:32:50.711Z,101477.41
2022-08-12T22:35:55.844Z,101466.44
2022-08-12T22:38:46.595Z,101469.28
2022-08-12T22:41:57.004Z,101462.00
2022-08-12T22:45:03.185Z,101458.75
2022-08-12T22:47:55.672Z,101459.59
2022-08-12T22:50:43.200Z,101452.75
2022-08-12T22:53:36.208Z,101444.66
2022-08-12T22:56:31.049Z,101444.28
2022-08-12T22:59:18.549Z,101450.75
2022-08-12T23:02:09.480Z,101449.16
2022-08-12T23:04:58.750Z,101447.53
2022-08-12T23:07:58.763Z,101450.78
2022-08-12T23:10:47.667Z,101451.19
2022-08-12T23:13:55.200Z,101450.38
2022-08-12T23:16:43.191Z,101449.59
2022-08-12T23:19:36.108Z,101452.03
2022-08-12T23:23:05.899Z,101453.25
2022-08-12T23:25:54.361Z,101458.53
2022-08-12T23:28:59.428Z,101458.09
2022-08-12T23:32:02.819Z,101463.34
2022-08-12T23:34:50.961Z,101461.34
2022-08-12T23:37:47.460Z,101456.13
2022-08-12T23:40:40.693Z,101452.09
2022-08-12T23:43:39.573Z,101451.28
2022-08-12T23:46:27.995Z,101441.19
2022-08-12T23:49:55.815Z,101438.78
2022-08-12T23:52:21.977Z,101442.41
2022-08-12T23:55:24.750Z,101439.97
2022-08-12T23:58:22.497Z,101432.28
